Wednesday, January 17, 2018, 9:58 AM EST
Back to Local

KSYR, Syracuse Hancock International Airport

Location: Syracuse, NY, United States Lat: 43.117
Local Time: 9:58 AM EST (14:58 GMT) Lon: -76.1
Time Zone: US/Eastern Elev: 410 ft

Show me the last for .
Show Decoded

2018-01-17 09:44 METAR KSYR 171444Z 25008KT 2SM -SN BR FEW017 BKN030 OVC036 M09/M11 A3039 =
2018-01-17 08:54 METAR KSYR 171354Z 26010KT 1 1/4SM R28/5500VP6000FT -SN BR BKN024 BKN031 OVC038
                 M09/M11 A3039 RMK AO2 SLP296 P0001 T10941111 =
2018-01-17 08:41 METAR KSYR 171341Z 25008KT 1 1/2SM -SN BR SCT026 OVC037 M09/M11 A3040 =
2018-01-17 07:54 METAR KSYR 171254Z 26010KT 2 1/2SM -SN BR SCT016 OVC034 M09/M11 A3039 RMK AO2
                 SLP293 P0000 T10891106 =
2018-01-17 07:22 METAR KSYR 171222Z 26009KT 5SM -SN BR OVC030 M09/M11 A3038 RMK AO2 P0000
                 T10891106 =
2018-01-17 06:54 METAR KSYR 171154Z 26010KT 5SM -SN BR FEW018 OVC025 M09/M11 A3039 RMK AO2 SLP294
                 4/009 P0000 60000 70008 T10891106 11044 21089 51014 =
2018-01-17 06:09 METAR KSYR 171109Z 26013KT 8SM -SN FEW015 OVC021 M08/M10 A3039 RMK AO2 P0000
                 T10831100 =
2018-01-17 05:54 METAR KSYR 171054Z 27009KT 8SM -SN OVC019 M08/M10 A3038 RMK AO2 SLP292 P0000
                 T10831100 =
2018-01-17 05:11 METAR KSYR 171011Z 27015KT 7SM -SN BKN015 OVC022 M08/M09 A3036 RMK AO2 P0000
                 T10781094 =
2018-01-17 04:54 METAR KSYR 170954Z 26013KT 6SM -SN BR BKN013 OVC020 M07/M08 A3036 RMK AO2 SLP284
                 P0000 T10721083 =
2018-01-17 04:44 METAR KSYR 170944Z 26013KT 6SM -SN BR BKN012 OVC020 M07/M08 A3036 RMK AO2 P0000
                 T10671078 =
2018-01-17 04:01 METAR KSYR 170901Z 29008KT 8SM -SN BKN008 OVC014 M06/M06 A3035 RMK AO2 P0000
                 T10561061 =
2018-01-17 03:54 METAR KSYR 170854Z 29013KT 8SM -SN SCT008 OVC016 M05/M06 A3035 RMK AO2 SLP280
                 P0000 60000 T10501061 51007 =
2018-01-17 03:48 METAR KSYR 170848Z 30011KT 7SM -SN SCT008 OVC016 M05/M05 A3035 =
2018-01-17 02:58 METAR KSYR 170758Z 00000KT 4SM -SN BR FEW016 BKN020 OVC041 M06/M06 A3034 =
2018-01-17 02:54 METAR KSYR 170754Z 00000KT 4SM -SN BR SCT026 BKN041 OVC075 M06/M06 A3033 RMK AO2
                 SLP274 P0000 T10561056 =
2018-01-17 01:54 METAR KSYR 170654Z 09004KT 4SM -SN BR FEW020 BKN033 OVC055 M06/M06 A3033 RMK AO2
                 SLP273 P0000 T10611061 =
2018-01-17 01:01 METAR KSYR 170601Z 00000KT 5SM -SN BR FEW019 BKN033 OVC080 M06/M06 A3033 RMK AO2
                 P0000 T10561056 =
2018-01-17 00:54 METAR KSYR 170554Z 00000KT 5SM -SN BR FEW021 BKN026 OVC100 M05/M05 A3033 RMK AO2
                 SLP275 4/009 P0000 60005 T10501050 11044 21056 58012 =
2018-01-17 00:08 METAR KSYR 170508Z 05003KT 3SM -SN BR BKN026 OVC110 M05/M05 A3034 RMK AO2 P0000
                 T10501050
2018-01-16 23:54 METAR KSYR 170454Z 00000KT 2 1/2SM -SN BR FEW007 OVC029 M06/M06 A3035 RMK AO2
                 SLP280 P0000 T10561056 410221089 =
2018-01-16 23:16 METAR KSYR 170416Z 00000KT 2 1/2SM -SN BR FEW006 OVC029 M05/M05 A3036 RMK AO2
                 P0000 T10501050 =
2018-01-16 22:54 METAR KSYR 170354Z 00000KT 2 1/2SM -SN BR OVC038 M04/M04 A3036 RMK AO2 SLP285
                 P0001 T10441044 =
2018-01-16 22:44 METAR KSYR 170344Z 10003KT 2 1/2SM -SN BR OVC040 M05/M05 A3036 RMK AO2 P0001
                 T10501050 =
2018-01-16 21:54 METAR KSYR 170254Z 07004KT 2 1/2SM -SN BR OVC022 M04/M04 A3037 RMK AO2 SLP288
                 P0001 60004 T10441044 58005 =
2018-01-16 21:35 METAR KSYR 170235Z 09003KT 2SM -SN BR FEW008 OVC022 M04/M04 A3037 RMK AO2 P0001
                 T10441044 =
2018-01-16 21:16 METAR KSYR 170216Z 09004KT 1 1/2SM -SN BR FEW008 OVC022 M04/M04 A3038 =
2018-01-16 20:54 METAR KSYR 170154Z 00000KT 1 3/4SM -SN BR OVC024 M04/M04 A3038 RMK AO2 SLP293
                 P0002 T10441044 =
2018-01-16 19:58 METAR KSYR 170058Z 00000KT 1 3/4SM -SN BR OVC024 M04/M04 A3039 =
2018-01-16 19:54 METAR KSYR 170054Z 00000KT 2SM -SN BR OVC030 M04/M04 A3038 RMK AO2 SLP293 P0001
                 T10441044 =
2018-01-16 18:54 METAR KSYR 162354Z 00000KT 2 1/2SM -SN BR OVC030 M04/M04 A3038 RMK AO2 SLP293
                 4/009 P0001 60003 T10441044 11022 21044 51002 =
2018-01-16 17:54 METAR KSYR 162254Z 00000KT 2 1/2SM -SN BR OVC030 M04/M04 A3038 RMK AO2 SLP293
                 P0001 T10391039 =
2018-01-16 17:13 METAR KSYR 162213Z 00000KT 2 1/2SM -SN BR OVC030 M04/M04 A3038 RMK AO2 P0000
                 T10391039 =
2018-01-16 17:01 METAR KSYR 162201Z 00000KT 1 1/2SM -SN BR OVC030 M03/M03 A3038 RMK AO2 P0000
                 T10331033 =
2018-01-16 16:54 METAR KSYR 162154Z 00000KT 2SM -SN BR BKN026 OVC037 M04/M04 A3038 RMK AO2 SLP292
                 P0001 T10391039 =
2018-01-16 16:01 METAR KSYR 162101Z 25004KT 2SM -SN BR BKN026 OVC037 M03/M04 A3038 RMK AO2 P0000
                 T10331044 =
2018-01-16 15:54 METAR KSYR 162054Z 26003KT 2 1/2SM -SN BR BKN032 OVC040 M03/M04 A3038 RMK AO2
                 SLP291 P0000 60000 T10331044 53002 =
2018-01-16 15:17 METAR KSYR 162017Z 20003KT 2 1/2SM -SN OVC035 M03/M06 A3038 RMK AO2 P0000
                 T10281056 =
2018-01-16 14:54 METAR KSYR 161954Z 26004KT 10SM -SN FEW025 BKN050 OVC065 M02/M06 A3037 RMK AO2
                 SNB52 SLP289 P0000 T10221061 =
2018-01-16 13:54 METAR KSYR 161854Z 24004KT 10SM FEW024 BKN038 OVC150 M02/M06 A3036 RMK AO2
                 SLP283 T10221056 =
2018-01-16 12:54 METAR KSYR 161754Z 22006KT 10SM SCT025 BKN034 OVC050 M02/M06 A3037 RMK AO2
                 SLP289 4/008 933012 60000 T10221056 11022 21089 58011 =
2018-01-16 12:25 METAR KSYR 161725Z 00000KT 10SM SCT026 BKN030 OVC055 M04/M06 A3038 RMK AO2
                 T10391061 =
2018-01-16 11:54 METAR KSYR 161654Z 00000KT 10SM BKN027 BKN035 OVC050 M04/M06 A3039 RMK AO2
                 SNE1559 SLP295 P0000 T10441061 =
2018-01-16 11:03 METAR KSYR 161603Z 00000KT 9SM BKN028 OVC055 M06/M07 A3040 RMK AO2 SNE1559 P0000
                 T10611072 =
2018-01-16 10:54 METAR KSYR 161554Z 00000KT 9SM -SN SCT028 BKN035 OVC055 M07/M07 A3041 RMK AO2
                 SLP301 PCPN VERY LIGHT P0000 T10671072 =

Support USWX by starting your Amazon purchase here.